sensor_id;sensor_type;location;lat;lon;timestamp;pressure;altitude;pressure_sealevel;temperature;humidity
78843;BME280;70542;53.774;-0.352;2024-01-25T00:00:18;102780;;;9.054;43
78843;BME280;70542;53.774;-0.352;2024-01-25T00:06:24;102770;;;9.022;44
78843;BME280;70542;53.774;-0.352;2024-01-25T00:12:20;102770;;;8.256;45
78843;BME280;70542;53.774;-0.352;2024-01-25T00:18:16;102770;;;8.606;45
78843;BME280;70542;53.774;-0.352;2024-01-25T00:24:13;102760;;;8.206;45
78843;BME280;70542;53.774;-0.352;2024-01-25T00:30:20;102770;;;9.455;43
78843;BME280;70542;53.774;-0.352;2024-01-25T00:36:21;102790;;;9.34;42
78843;BME280;70542;53.774;-0.352;2024-01-25T00:42:28;102770;;;8.309;44
78843;BME280;70542;53.774;-0.352;2024-01-25T00:48:42;102760;;;7.908;46
78843;BME280;70542;53.774;-0.352;2024-01-25T00:54:22;102770;;;8.526;45
78843;BME280;70542;53.774;-0.352;2024-01-25T01:00:07;102770;;;8.94;44
78843;BME280;70542;53.774;-0.352;2024-01-25T01:06:21;102750;;;9.052;43
78843;BME280;70542;53.774;-0.352;2024-01-25T01:12:22;102740;;;7.176;47
78843;BME280;70542;53.774;-0.352;2024-01-25T01:18:23;102730;;;6.008;51
78843;BME280;70542;53.774;-0.352;2024-01-25T01:24:36;102740;;;7.008;48
78843;BME280;70542;53.774;-0.352;2024-01-25T01:30:43;102740;;;7.545;48
78843;BME280;70542;53.774;-0.352;2024-01-25T01:36:49;102740;;;7.211;46
78843;BME280;70542;53.774;-0.352;2024-01-25T01:42:50;102720;;;7.693;46
78843;BME280;70542;53.774;-0.352;2024-01-25T01:49:05;102720;;;7.965;46
78843;BME280;70542;53.774;-0.352;2024-01-25T01:55:19;102730;;;8.375;44
78843;BME280;70542;53.774;-0.352;2024-01-25T02:01:20;102730;;;9.241;43
78843;BME280;70542;53.774;-0.352;2024-01-25T02:07:21;102720;;;9.758;42
78843;BME280;70542;53.774;-0.352;2024-01-25T02:13:28;102720;;;9.636;42
78843;BME280;70542;53.774;-0.352;2024-01-25T02:19:35;102720;;;9.741;41
78843;BME280;70542;53.774;-0.352;2024-01-25T02:25:43;102730;;;9.313;42
78843;BME280;70542;53.774;-0.352;2024-01-25T02:31:56;102730;;;10.005;41
78843;BME280;70542;53.774;-0.352;2024-01-25T02:38:09;102730;;;9.724;41
78843;BME280;70542;53.774;-0.352;2024-01-25T02:44:27;102720;;;9.543;41
78843;BME280;70542;53.774;-0.352;2024-01-25T02:50:36;102700;;;9.807;42
78843;BME280;70542;53.774;-0.352;2024-01-25T02:56:32;102700;;;9.56;41
78843;BME280;70542;53.774;-0.352;2024-01-25T03:02:37;102710;;;9.511;41
78843;BME280;70542;53.774;-0.352;2024-01-25T03:08:43;102710;;;9.629;41
78843;BME280;70542;53.774;-0.352;2024-01-25T03:14:56;102700;;;9.596;40
78843;BME280;70542;53.774;-0.352;2024-01-25T03:20:52;102670;;;9.532;42
78843;BME280;70542;53.774;-0.352;2024-01-25T03:26:48;102660;;;9.487;41
78843;BME280;70542;53.774;-0.352;2024-01-25T03:32:59;102660;;;9.306;42
78843;BME280;70542;53.774;-0.352;2024-01-25T03:39:12;102650;;;9.452;41
78843;BME280;70542;53.774;-0.352;2024-01-25T03:45:13;102660;;;8.307;44
78843;BME280;70542;53.774;-0.352;2024-01-25T03:51:14;102660;;;7.681;45
78843;BME280;70542;53.774;-0.352;2024-01-25T03:57:32;102650;;;7.193;47
78843;BME280;70542;53.774;-0.352;2024-01-25T04:03:29;102640;;;7.489;46
78843;BME280;70542;53.774;-0.352;2024-01-25T04:09:43;102630;;;8.073;45
78843;BME280;70542;53.774;-0.352;2024-01-25T04:15:51;102620;;;8.659;44
78843;BME280;70542;53.774;-0.352;2024-01-25T04:21:47;102600;;;9.11;43
78843;BME280;70542;53.774;-0.352;2024-01-25T04:28:01;102590;;;8.953;43
78843;BME280;70542;53.774;-0.352;2024-01-25T04:34:09;102580;;;9.515;43
78843;BME280;70542;53.774;-0.352;2024-01-25T04:40:07;102590;;;9.187;42
78843;BME280;70542;53.774;-0.352;2024-01-25T04:46:14;102590;;;9.67;42
78843;BME280;70542;53.774;-0.352;2024-01-25T04:52:10;102580;;;9.561;42
78843;BME280;70542;53.774;-0.352;2024-01-25T04:58:11;102580;;;10.011;41
78843;BME280;70542;53.774;-0.352;2024-01-25T05:04:24;102590;;;10.016;41
78843;BME280;70542;53.774;-0.352;2024-01-25T05:10:20;102580;;;9.807;42
78843;BME280;70542;53.774;-0.352;2024-01-25T05:16:26;102570;;;10.114;41
78843;BME280;70542;53.774;-0.352;2024-01-25T05:22:45;102570;;;9.321;43
78843;BME280;70542;53.774;-0.352;2024-01-25T05:28:41;102560;;;9.638;43
78843;BME280;70542;53.774;-0.352;2024-01-25T05:34:49;102580;;;9.705;42
78843;BME280;70542;53.774;-0.352;2024-01-25T05:40:46;102560;;;9.968;42
78843;BME280;70542;53.774;-0.352;2024-01-25T05:46:42;102560;;;9.918;42
78843;BME280;70542;53.774;-0.352;2024-01-25T05:52:38;102560;;;9.775;42
78843;BME280;70542;53.774;-0.352;2024-01-25T05:58:45;102570;;;9.839;42
78843;BME280;70542;53.774;-0.352;2024-01-25T06:04:44;102560;;;10.422;42
78843;BME280;70542;53.774;-0.352;2024-01-25T06:10:46;102550;;;10.804;42
78843;BME280;70542;53.774;-0.352;2024-01-25T06:16:48;102560;;;9.704;42
78843;BME280;70542;53.774;-0.352;2024-01-25T06:22:45;102550;;;10.347;43
78843;BME280;70542;53.774;-0.352;2024-01-25T06:28:42;102560;;;9.797;43
78843;BME280;70542;53.774;-0.352;2024-01-25T06:34:39;102560;;;10.548;42
78843;BME280;70542;53.774;-0.352;2024-01-25T06:40:41;102560;;;10.711;42
78843;BME280;70542;53.774;-0.352;2024-01-25T06:46:50;102560;;;10.813;42
78843;BME280;70542;53.774;-0.352;2024-01-25T06:52:47;102550;;;10.665;42
78843;BME280;70542;53.774;-0.352;2024-01-25T06:58:56;102530;;;11.222;41
78843;BME280;70542;53.774;-0.352;2024-01-25T07:04:53;102520;;;10.947;41
78843;BME280;70542;53.774;-0.352;2024-01-25T07:10:52;102520;;;10.768;41
78843;BME280;70542;53.774;-0.352;2024-01-25T07:17:09;102510;;;10.962;41
78843;BME280;70542;53.774;-0.352;2024-01-25T07:23:26;102500;;;10.844;42
78843;BME280;70542;53.774;-0.352;2024-01-25T07:29:23;102470;;;11.638;41
78843;BME280;70542;53.774;-0.352;2024-01-25T07:35:32;102470;;;11.798;41
78843;BME280;70542;53.774;-0.352;2024-01-25T07:41:28;102460;;;11.474;42
78843;BME280;70542;53.774;-0.352;2024-01-25T07:47:37;102460;;;11.562;42
78843;BME280;70542;53.774;-0.352;2024-01-25T07:53:56;102450;;;11.508;42
78843;BME280;70542;53.774;-0.352;2024-01-25T08:00:06;102450;;;11.922;42
78843;BME280;70542;53.774;-0.352;2024-01-25T08:06:08;102440;;;11.555;42
78843;BME280;70542;53.774;-0.352;2024-01-25T08:12:16;102430;;;11.649;42
78843;BME280;70542;53.774;-0.352;2024-01-25T08:18:13;102410;;;11.706;42
78843;BME280;70542;53.774;-0.352;2024-01-25T08:24:22;102400;;;12.221;41
78843;BME280;70542;53.774;-0.352;2024-01-25T08:30:24;102400;;;11.577;42
78843;BME280;70542;53.774;-0.352;2024-01-25T08:36:37;102400;;;12.258;41
78843;BME280;70542;53.774;-0.352;2024-01-25T08:42:37;102400;;;12.008;42
78843;BME280;70542;53.774;-0.352;2024-01-25T08:48:54;102400;;;11.979;43
78843;BME280;70542;53.774;-0.352;2024-01-25T08:54:51;102390;;;11.745;43
78843;BME280;70542;53.774;-0.352;2024-01-25T09:01:01;102370;;;11.301;44
78843;BME280;70542;53.774;-0.352;2024-01-25T09:07:09;102360;;;11.198;45
78843;BME280;70542;53.774;-0.352;2024-01-25T09:13:18;102360;;;10.492;46
78843;BME280;70542;53.774;-0.352;2024-01-25T09:19:15;102350;;;11.023;46
78843;BME280;70542;53.774;-0.352;2024-01-25T09:25:24;102340;;;11.887;45
78843;BME280;70542;53.774;-0.352;2024-01-25T09:31:23;102340;;;11.247;46
78843;BME280;70542;53.774;-0.352;2024-01-25T09:37:20;102330;;;11.541;46
78843;BME280;70542;53.774;-0.352;2024-01-25T09:43:18;102320;;;11.562;46
78843;BME280;70542;53.774;-0.352;2024-01-25T09:49:23;102320;;;11.591;45
78843;BME280;70542;53.774;-0.352;2024-01-25T09:55:36;102300;;;11.66;46
78843;BME280;70542;53.774;-0.352;2024-01-25T10:01:56;102300;;;12.152;46
78843;BME280;70542;53.774;-0.352;2024-01-25T10:07:57;102290;;;11.093;47
78843;BME280;70542;53.774;-0.352;2024-01-25T10:14:18;102280;;;11.827;46
78843;BME280;70542;53.774;-0.352;2024-01-25T10:20:31;102280;;;11.858;46
78843;BME280;70542;53.774;-0.352;2024-01-25T10:26:34;102280;;;11.886;46
78843;BME280;70542;53.774;-0.352;2024-01-25T10:32:49;102280;;;12.315;45
78843;BME280;70542;53.774;-0.352;2024-01-25T10:39:09;102270;;;12.453;45
78843;BME280;70542;53.774;-0.352;2024-01-25T10:45:10;102260;;;11.254;49
78843;BME280;70542;53.774;-0.352;2024-01-25T10:51:23;102250;;;11.157;50
78843;BME280;70542;53.774;-0.352;2024-01-25T10:57:34;102250;;;11.355;49
78843;BME280;70542;53.774;-0.352;2024-01-25T11:03:45;102260;;;10.328;51
78843;BME280;70542;53.774;-0.352;2024-01-25T11:09:54;102220;;;10.57;53
78843;BME280;70542;53.774;-0.352;2024-01-25T11:16:14;102210;;;10.629;52
78843;BME280;70542;53.774;-0.352;2024-01-25T11:22:34;102210;;;11.086;51
78843;BME280;70542;53.774;-0.352;2024-01-25T11:28:40;102200;;;11.525;50
78843;BME280;70542;53.774;-0.352;2024-01-25T11:34:45;102190;;;10.998;51
78843;BME280;70542;53.774;-0.352;2024-01-25T11:40:49;102180;;;11.548;51
78843;BME280;70542;53.774;-0.352;2024-01-25T11:46:57;102160;;;11.251;52
78843;BME280;70542;53.774;-0.352;2024-01-25T11:52:59;102140;;;11.687;50
78843;BME280;70542;53.774;-0.352;2024-01-25T11:59:12;102140;;;11.803;51
78843;BME280;70542;53.774;-0.352;2024-01-25T12:05:16;102130;;;12.001;49
78843;BME280;70542;53.774;-0.352;2024-01-25T12:11:20;102100;;;11.534;50
78843;BME280;70542;53.774;-0.352;2024-01-25T12:17:17;102100;;;11.732;50
78843;BME280;70542;53.774;-0.352;2024-01-25T12:23:49;102080;;;11.759;50
78843;BME280;70542;53.774;-0.352;2024-01-25T12:30:07;102070;;;12.758;49
78843;BME280;70542;53.774;-0.352;2024-01-25T12:36:39;102060;;;12.703;49
78843;BME280;70542;53.774;-0.352;2024-01-25T12:42:44;102060;;;12.381;50
78843;BME280;70542;53.774;-0.352;2024-01-25T12:49:05;102030;;;12.234;51
78843;BME280;70542;53.774;-0.352;2024-01-25T12:55:23;102030;;;12.46;50
78843;BME280;70542;53.774;-0.352;2024-01-25T13:01:40;102010;;;12.174;50
78843;BME280;70542;53.774;-0.352;2024-01-25T13:07:49;102010;;;12.53;50
78843;BME280;70542;53.774;-0.352;2024-01-25T13:14:06;101980;;;12.557;51
78843;BME280;70542;53.774;-0.352;2024-01-25T13:20:18;101990;;;11.771;53
78843;BME280;70542;53.774;-0.352;2024-01-25T13:26:15;101990;;;11.919;53
78843;BME280;70542;53.774;-0.352;2024-01-25T13:32:29;101980;;;11.843;53
78843;BME280;70542;53.774;-0.352;2024-01-25T13:38:34;101970;;;12.317;52
78843;BME280;70542;53.774;-0.352;2024-01-25T13:44:40;101960;;;11.332;55
78843;BME280;70542;53.774;-0.352;2024-01-25T13:50:59;101950;;;12.303;53
78843;BME280;70542;53.774;-0.352;2024-01-25T13:57:08;101930;;;13.121;51
78843;BME280;70542;53.774;-0.352;2024-01-25T14:03:17;101930;;;12.933;52
78843;BME280;70542;53.774;-0.352;2024-01-25T14:09:14;101920;;;13.525;50
78843;BME280;70542;53.774;-0.352;2024-01-25T14:15:23;101910;;;13.474;50
78843;BME280;70542;53.774;-0.352;2024-01-25T14:21:36;101900;;;13.395;51
78843;BME280;70542;53.774;-0.352;2024-01-25T14:27:42;101880;;;13.948;49
78843;BME280;70542;53.774;-0.352;2024-01-25T14:33:39;101870;;;13.968;48
78843;BME280;70542;53.774;-0.352;2024-01-25T14:39:36;101900;;;14.675;47
78843;BME280;70542;53.774;-0.352;2024-01-25T14:45:15;101870;;;14.213;48
78843;BME280;70542;53.774;-0.352;2024-01-25T14:50:54;101880;;;14.031;49
78843;BME280;70542;53.774;-0.352;2024-01-25T14:56:51;101870;;;13.919;49
78843;BME280;70542;53.774;-0.352;2024-01-25T15:02:59;101860;;;14.478;47
78843;BME280;70542;53.774;-0.352;2024-01-25T15:09:12;101840;;;14.147;49
78843;BME280;70542;53.774;-0.352;2024-01-25T15:15:20;101830;;;14.148;48
78843;BME280;70542;53.774;-0.352;2024-01-25T15:21:29;101820;;;14.449;48
78843;BME280;70542;53.774;-0.352;2024-01-25T15:27:38;101810;;;13.008;50
78843;BME280;70542;53.774;-0.352;2024-01-25T15:33:35;101800;;;14.53;47
78843;BME280;70542;53.774;-0.352;2024-01-25T15:39:44;101780;;;14.117;48
78843;BME280;70542;53.774;-0.352;2024-01-25T15:45:53;101790;;;14.26;48
78843;BME280;70542;53.774;-0.352;2024-01-25T15:52:02;101780;;;15.266;46
78843;BME280;70542;53.774;-0.352;2024-01-25T15:57:58;101770;;;14.757;47
78843;BME280;70542;53.774;-0.352;2024-01-25T16:03:55;101760;;;14.68;48
78843;BME280;70542;53.774;-0.352;2024-01-25T16:10:05;101770;;;13.527;52
78843;BME280;70542;53.774;-0.352;2024-01-25T16:16:19;101760;;;13.582;53
78843;BME280;70542;53.774;-0.352;2024-01-25T16:22:20;101740;;;13.193;52
78843;BME280;70542;53.774;-0.352;2024-01-25T16:28:37;101740;;;13.877;51
78843;BME280;70542;53.774;-0.352;2024-01-25T16:34:35;101740;;;13.183;52
78843;BME280;70542;53.774;-0.352;2024-01-25T16:40:32;101730;;;12.845;53
78843;BME280;70542;53.774;-0.352;2024-01-25T16:46:40;101740;;;12.771;53
78843;BME280;70542;53.774;-0.352;2024-01-25T16:52:37;101740;;;12.901;53
78843;BME280;70542;53.774;-0.352;2024-01-25T16:58:51;101740;;;13.2;52
78843;BME280;70542;53.774;-0.352;2024-01-25T17:05:00;101730;;;12.34;54
78843;BME280;70542;53.774;-0.352;2024-01-25T17:11:00;101730;;;13.507;52
78843;BME280;70542;53.774;-0.352;2024-01-25T17:17:09;101720;;;14.348;50
78843;BME280;70542;53.774;-0.352;2024-01-25T17:23:18;101720;;;13.456;51
78843;BME280;70542;53.774;-0.352;2024-01-25T17:29:27;101710;;;14.245;50
78843;BME280;70542;53.774;-0.352;2024-01-25T17:35:24;101710;;;13.797;49
78843;BME280;70542;53.774;-0.352;2024-01-25T17:41:21;101700;;;13.977;50
78843;BME280;70542;53.774;-0.352;2024-01-25T17:47:30;101700;;;14.133;50
78843;BME280;70542;53.774;-0.352;2024-01-25T17:53:39;101690;;;13.664;50
78843;BME280;70542;53.774;-0.352;2024-01-25T17:59:36;101680;;;14.263;50
78843;BME280;70542;53.774;-0.352;2024-01-25T18:05:33;101680;;;13.707;51
78843;BME280;70542;53.774;-0.352;2024-01-25T18:11:53;101680;;;13.504;52
78843;BME280;70542;53.774;-0.352;2024-01-25T18:17:50;101670;;;14.004;52
78843;BME280;70542;53.774;-0.352;2024-01-25T18:24:10;101650;;;13.312;53
78843;BME280;70542;53.774;-0.352;2024-01-25T18:30:24;101640;;;13.054;52
78843;BME280;70542;53.774;-0.352;2024-01-25T18:36:39;101630;;;14.272;50
78843;BME280;70542;53.774;-0.352;2024-01-25T18:42:46;101610;;;14.227;51
78843;BME280;70542;53.774;-0.352;2024-01-25T18:48:43;101610;;;12.978;53
78843;BME280;70542;53.774;-0.352;2024-01-25T18:54:41;101620;;;13.536;53
78843;BME280;70542;53.774;-0.352;2024-01-25T19:00:50;101600;;;13.737;52
78843;BME280;70542;53.774;-0.352;2024-01-25T19:06:52;101590;;;14.222;51
78843;BME280;70542;53.774;-0.352;2024-01-25T19:12:49;101590;;;13.093;52
78843;BME280;70542;53.774;-0.352;2024-01-25T19:19:03;101570;;;14.089;51
78843;BME280;70542;53.774;-0.352;2024-01-25T19:25:05;101560;;;13.652;51
78843;BME280;70542;53.774;-0.352;2024-01-25T19:31:18;101570;;;13.074;52
78843;BME280;70542;53.774;-0.352;2024-01-25T19:37:19;101550;;;14.285;49
78843;BME280;70542;53.774;-0.352;2024-01-25T19:43:15;101540;;;14.285;50
78843;BME280;70542;53.774;-0.352;2024-01-25T19:49:25;101530;;;14.218;49
78843;BME280;70542;53.774;-0.352;2024-01-25T19:55:22;101520;;;14.823;48
78843;BME280;70542;53.774;-0.352;2024-01-25T20:01:25;101520;;;14.387;49
78843;BME280;70542;53.774;-0.352;2024-01-25T20:07:22;101490;;;14.48;49
78843;BME280;70542;53.774;-0.352;2024-01-25T20:13:18;101480;;;14.415;49
78843;BME280;70542;53.774;-0.352;2024-01-25T20:19:15;101470;;;12.673;51
78843;BME280;70542;53.774;-0.352;2024-01-25T20:25:12;101460;;;13.952;50
78843;BME280;70542;53.774;-0.352;2024-01-25T20:31:22;101440;;;14.896;49
78843;BME280;70542;53.774;-0.352;2024-01-25T20:37:31;101430;;;14.255;50
78843;BME280;70542;53.774;-0.352;2024-01-25T20:43:33;101430;;;13.674;50
78843;BME280;70542;53.774;-0.352;2024-01-25T20:49:41;101420;;;13.41;51
78843;BME280;70542;53.774;-0.352;2024-01-25T20:55:38;101420;;;13.986;50
78843;BME280;70542;53.774;-0.352;2024-01-25T21:01:35;101410;;;13.99;51
78843;BME280;70542;53.774;-0.352;2024-01-25T21:07:32;101400;;;14.281;50
78843;BME280;70542;53.774;-0.352;2024-01-25T21:13:41;101380;;;14.502;49
78843;BME280;70542;53.774;-0.352;2024-01-25T21:19:38;101350;;;14.17;49
78843;BME280;70542;53.774;-0.352;2024-01-25T21:25:47;101350;;;14.495;49
78843;BME280;70542;53.774;-0.352;2024-01-25T21:31:56;101330;;;14.0;51
78843;BME280;70542;53.774;-0.352;2024-01-25T21:37:53;101340;;;14.859;48
78843;BME280;70542;53.774;-0.352;2024-01-25T21:44:02;101320;;;14.755;49
78843;BME280;70542;53.774;-0.352;2024-01-25T21:50:11;101300;;;14.584;49
78843;BME280;70542;53.774;-0.352;2024-01-25T21:56:12;101310;;;14.184;50
78843;BME280;70542;53.774;-0.352;2024-01-25T22:02:26;101320;;;14.719;50
78843;BME280;70542;53.774;-0.352;2024-01-25T22:08:23;101300;;;14.767;49
78843;BME280;70542;53.774;-0.352;2024-01-25T22:14:35;101290;;;14.614;49
78843;BME280;70542;53.774;-0.352;2024-01-25T22:20:50;101270;;;13.782;51
78843;BME280;70542;53.774;-0.352;2024-01-25T22:27:07;101250;;;14.043;51
78843;BME280;70542;53.774;-0.352;2024-01-25T22:33:04;101220;;;14.493;50
78843;BME280;70542;53.774;-0.352;2024-01-25T22:39:01;101220;;;13.92;51
78843;BME280;70542;53.774;-0.352;2024-01-25T22:44:59;101210;;;13.479;53
78843;BME280;70542;53.774;-0.352;2024-01-25T22:51:13;101200;;;13.179;53
78843;BME280;70542;53.774;-0.352;2024-01-25T22:57:11;101200;;;13.172;54
78843;BME280;70542;53.774;-0.352;2024-01-25T23:09:48;101180;;;12.745;56
78843;BME280;70542;53.774;-0.352;2024-01-25T23:16:01;101170;;;13.514;54
78843;BME280;70542;53.774;-0.352;2024-01-25T23:22:15;101150;;;12.878;56
78843;BME280;70542;53.774;-0.352;2024-01-25T23:28:11;101150;;;11.798;58
78843;BME280;70542;53.774;-0.352;2024-01-25T23:34:20;101130;;;12.737;56
78843;BME280;70542;53.774;-0.352;2024-01-25T23:40:29;101110;;;12.574;57
78843;BME280;70542;53.774;-0.352;2024-01-25T23:46:37;101120;;;12.776;56
78843;BME280;70542;53.774;-0.352;2024-01-25T23:52:39;101100;;;13.445;55
78843;BME280;70542;53.774;-0.352;2024-01-25T23:58:48;101090;;;13.26;55
